Terminal Aerodrome Forecast
Issued by NWS

Home | Current Version | Previous Version | Text Only | Print | Product List | Glossary On
Versions: 1 2 3 4 5 6 7 8 9 10 11 12 13
000
FTUS44 KEPZ 282300
TAFTCS
TAF
KTCS 282333Z 2900/2924 20011KT P6SM VCTS SCT070CB BKN120 BKN250
      TEMPO 2900/2904 VRB25G35KT TSRA BKN060CB OVC120
     FM290400 VRB05KT P6SM SCT120 BKN250
     FM291900 21010KT P6SM SCT070
     FM292200 22011KT P6SM VCTS SCT080CB SCT250=

USA.gov is the U.S. government's official web portal to all federal, state and local government web resources and services.